Tidewater, Oregon
Current Conditions -  °F | °C
As of 12:35 AM on Friday 21 Nov 2014 (Local Time) from KONP Reporting Station
Scattered Clouds Scattered Clouds  
Wind Chill: 52°   Ceiling: Unl
Heat Index: 52°   Visibility: 10mi
Dew Point: 46°   Wind: 8mph
Humidity: 82%   Direction: 160°SSE
Pressure: 29.95"   Gusts: NA
Location:  44.41°N, 123.9°W
Report Text: KONP 210835Z AUTO 16007KT 10SM SCT024 SCT031 SCT046 11/08 A2995 RMK AO2
Loading
Personal Weather Stations






























Interactive Weather Map New forecast layout! Learn more

10-Day Weather Forecast

Advertisements
Track Severe Weather on mobile